No particular awareness of the weather is required.    There are no Weather-warnings


Meteo18 Weather Cam more information Meteo18 Weather Cam


Thunder radar more information blitzortung!


Rain radar more information rain snow radar


Visit our other weather sites:

Template documentation
and downloads

And another site



Weather Underground History page Text

Daily Summary for March 09, 2018 Units:  Both    English   Metric
« Previous Day
Next Day »
Daily Weekly Monthly Yearly Custom
  High: Low: Average:
Temperature: TemperatureC °F /  -17.8 °C 5.9 °F /  -14.5 °C 11.2 °F /  -11.6 °C
Dew Point: DewpointC °F /  -17.8 °C 2.7 °F /  -16.3 °C 6.7 °F /  -14.1 °C
Humidity: Humidity % 61 % 74 %
Wind Speed: WindSpeedKMH mph /  0 km/h - 2.8 mph /  4.5 km/h
Wind Gust: WindSpeedGustKMH mph /  0 km/h - -
Wind:- - South
Pressure: PressurehPa in /  0 hPa 1003.9 in /  33992.1 hPa -
Precipitation: 0.0 in /  0 mm    
Historical Graphs
 
 
Tabular Data for March 09, 2018
Time Temperature Dew Point Pressure Wind Wind Speed Wind Gust Humidity Rainfall Rate (Hourly)
TemperatureC °F /  -17.8 °C DewpointC °F /  -17.8 °C PressurehPa in /  0 hPa Calm     Humidity % HourlyPrecipMM in /  0 mm
00:05 6.1 °F /  -14.4 °C 2.7 °F /  -16.3 °C 1008.0 in /  34130.9 hPa Calm     79 % 0.0 in /  0 mm
00:11 6.0 °F /  -14.4 °C 2.8 °F /  -16.2 °C 1008.0 in /  34130.9 hPa Calm   1.6 mph /  2.6 km/h 80 % 0.0 in /  0 mm
00:17 5.9 °F /  -14.5 °C 2.9 °F /  -16.2 °C 1008.0 in /  34130.9 hPa Calm   3.2 mph /  5.1 km/h 81 % 0.0 in /  0 mm
00:23 6.4 °F /  -14.2 °C 2.8 °F /  -16.2 °C 1008.0 in /  34130.9 hPa Calm   1.6 mph /  2.6 km/h 78 % 0.0 in /  0 mm
00:29 6.5 °F /  -14.2 °C 2.8 °F /  -16.2 °C 1008.0 in /  34130.9 hPa Calm   1.6 mph /  2.6 km/h 77 % 0.0 in /  0 mm
00:35 6.6 °F /  -14.1 °C 2.9 °F /  -16.2 °C 1008.0 in /  34130.9 hPa Calm     77 % 0.0 in /  0 mm
00:41 6.7 °F /  -14.1 °C 3.0 °F /  -16.1 °C 1008.0 in /  34130.9 hPa Calm     77 % 0.0 in /  0 mm
00:47 6.7 °F /  -14.1 °C 3.0 °F /  -16.1 °C 1007.7 in /  34120.7 hPa East 1.4 mph /  2.3 km/h 1.6 mph /  2.6 km/h 77 % 0.0 in /  0 mm
00:53 6.6 °F /  -14.1 °C 2.9 °F /  -16.2 °C 1007.7 in /  34120.7 hPa ENE 1.4 mph /  2.3 km/h 1.6 mph /  2.6 km/h 77 % 0.0 in /  0 mm
00:59 6.7 °F /  -14.1 °C 3.0 °F /  -16.1 °C 1007.7 in /  34120.7 hPa East 1.4 mph /  2.3 km/h 1.6 mph /  2.6 km/h 77 % 0.0 in /  0 mm
01:05 6.6 °F /  -14.1 °C 3.2 °F /  -16 °C 1007.7 in /  34120.7 hPa Calm   1.6 mph /  2.6 km/h 79 % 0.0 in /  0 mm
01:11 6.5 °F /  -14.2 °C 3.3 °F /  -15.9 °C 1007.7 in /  34120.7 hPa Calm     80 % 0.0 in /  0 mm
01:17 6.4 °F /  -14.2 °C 3.4 °F /  -15.9 °C 1007.7 in /  34120.7 hPa Calm     81 % 0.0 in /  0 mm
01:23 6.3 °F /  -14.3 °C 3.3 °F /  -15.9 °C 1008.0 in /  34130.9 hPa WNW 1.4 mph /  2.3 km/h 1.6 mph /  2.6 km/h 81 % 0.0 in /  0 mm
01:29 6.2 °F /  -14.3 °C 3.2 °F /  -16 °C 1008.0 in /  34130.9 hPa Calm   1.6 mph /  2.6 km/h 81 % 0.0 in /  0 mm
01:35 6.3 °F /  -14.3 °C 3.1 °F /  -16.1 °C 1007.7 in /  34120.7 hPa Calm     80 % 0.0 in /  0 mm
01:41 6.6 °F /  -14.1 °C 3.2 °F /  -16 °C 1007.7 in /  34120.7 hPa Calm     79 % 0.0 in /  0 mm
01:47 6.7 °F /  -14.1 °C 3.3 °F /  -15.9 °C 1007.7 in /  34120.7 hPa Calm   1.6 mph /  2.6 km/h 79 % 0.0 in /  0 mm
01:53 6.8 °F /  -14 °C 3.2 °F /  -16 °C 1007.7 in /  34120.7 hPa Calm   1.6 mph /  2.6 km/h 78 % 0.0 in /  0 mm
01:59 6.9 °F /  -13.9 °C 3.3 °F /  -15.9 °C 1007.7 in /  34120.7 hPa Calm   1.6 mph /  2.6 km/h 78 % 0.0 in /  0 mm
02:05 6.8 °F /  -14 °C 3.2 °F /  -16 °C 1007.7 in /  34120.7 hPa NNE 1.4 mph /  2.3 km/h 1.6 mph /  2.6 km/h 78 % 0.0 in /  0 mm
02:11 6.5 °F /  -14.2 °C 3.1 °F /  -16.1 °C 1007.7 in /  34120.7 hPa NNE 1.4 mph /  2.3 km/h 1.6 mph /  2.6 km/h 79 % 0.0 in /  0 mm
02:17 6.4 °F /  -14.2 °C 3.2 °F /  -16 °C 1007.3 in /  34107.2 hPa Calm     80 % 0.0 in /  0 mm
02:23 6.3 °F /  -14.3 °C 3.1 °F /  -16.1 °C 1007.3 in /  34107.2 hPa Calm     80 % 0.0 in /  0 mm
02:29 6.3 °F /  -14.3 °C 3.3 °F /  -15.9 °C 1007.3 in /  34107.2 hPa Calm     81 % 0.0 in /  0 mm
02:35 6.2 °F /  -14.3 °C 3.0 °F /  -16.1 °C 1007.3 in /  34107.2 hPa Calm     80 % 0.0 in /  0 mm
02:41 6.2 °F /  -14.3 °C 3.4 °F /  -15.9 °C 1007.7 in /  34120.7 hPa Calm     82 % 0.0 in /  0 mm
02:47 6.1 °F /  -14.4 °C 3.3 °F /  -15.9 °C 1007.7 in /  34120.7 hPa Calm     82 % 0.0 in /  0 mm
02:53 6.3 °F /  -14.3 °C 3.3 °F /  -15.9 °C 1007.7 in /  34120.7 hPa Calm     81 % 0.0 in /  0 mm
02:59 6.4 °F /  -14.2 °C 3.4 °F /  -15.9 °C 1007.3 in /  34107.2 hPa Calm     81 % 0.0 in /  0 mm
03:05 6.6 °F /  -14.1 °C 3.4 °F /  -15.9 °C 1007.3 in /  34107.2 hPa Calm     80 % 0.0 in /  0 mm
03:11 6.6 °F /  -14.1 °C 3.4 °F /  -15.9 °C 1007.3 in /  34107.2 hPa Calm     80 % 0.0 in /  0 mm
03:17 6.4 °F /  -14.2 °C 3.2 °F /  -16 °C 1007.3 in /  34107.2 hPa Calm     80 % 0.0 in /  0 mm
03:23 6.5 °F /  -14.2 °C 3.3 °F /  -15.9 °C 1007.3 in /  34107.2 hPa Calm     80 % 0.0 in /  0 mm
03:29 6.8 °F /  -14 °C 3.6 °F /  -15.8 °C 1007.7 in /  34120.7 hPa Calm     80 % 0.0 in /  0 mm
03:35 6.9 °F /  -13.9 °C 3.7 °F /  -15.7 °C 1007.7 in /  34120.7 hPa Calm     80 % 0.0 in /  0 mm
03:41 6.9 °F /  -13.9 °C 3.7 °F /  -15.7 °C 1007.7 in /  34120.7 hPa Calm     80 % 0.0 in /  0 mm
03:47 6.9 °F /  -13.9 °C 3.9 °F /  -15.6 °C 1007.7 in /  34120.7 hPa Calm     81 % 0.0 in /  0 mm
03:53 6.9 °F /  -13.9 °C 3.9 °F /  -15.6 °C 1007.7 in /  34120.7 hPa Calm     81 % 0.0 in /  0 mm
03:59 6.9 °F /  -13.9 °C 3.9 °F /  -15.6 °C 1007.7 in /  34120.7 hPa Calm     81 % 0.0 in /  0 mm
04:06 6.8 °F /  -14 °C 3.8 °F /  -15.7 °C 1007.3 in /  34107.2 hPa Calm     81 % 0.0 in /  0 mm
04:12 6.8 °F /  -14 °C 3.8 °F /  -15.7 °C 1007.7 in /  34120.7 hPa Calm     81 % 0.0 in /  0 mm
04:18 6.8 °F /  -14 °C 3.8 °F /  -15.7 °C 1007.3 in /  34107.2 hPa Calm     81 % 0.0 in /  0 mm
04:24 6.7 °F /  -14.1 °C 3.8 °F /  -15.7 °C 1007.7 in /  34120.7 hPa Calm     82 % 0.0 in /  0 mm
04:30 6.6 °F /  -14.1 °C 3.7 °F /  -15.7 °C 1007.7 in /  34120.7 hPa Calm     82 % 0.0 in /  0 mm
04:36 6.6 °F /  -14.1 °C 3.7 °F /  -15.7 °C 1007.7 in /  34120.7 hPa Calm     82 % 0.0 in /  0 mm
04:42 6.5 °F /  -14.2 °C 3.8 °F /  -15.7 °C 1007.7 in /  34120.7 hPa Calm     83 % 0.0 in /  0 mm
04:48 6.6 °F /  -14.1 °C 3.9 °F /  -15.6 °C 1007.7 in /  34120.7 hPa Calm     83 % 0.0 in /  0 mm
04:54 6.7 °F /  -14.1 °C 4.0 °F /  -15.6 °C 1007.7 in /  34120.7 hPa Calm     83 % 0.0 in /  0 mm
05:00 6.8 °F /  -14 °C 3.9 °F /  -15.6 °C 1007.7 in /  34120.7 hPa Calm     82 % 0.0 in /  0 mm
05:06 6.7 °F /  -14.1 °C 3.8 °F /  -15.7 °C 1007.7 in /  34120.7 hPa Calm     82 % 0.0 in /  0 mm
05:12 6.9 °F /  -13.9 °C 4.0 °F /  -15.6 °C 1007.7 in /  34120.7 hPa Calm     82 % 0.0 in /  0 mm
05:18 6.9 °F /  -13.9 °C 4.0 °F /  -15.6 °C 1007.7 in /  34120.7 hPa Calm     82 % 0.0 in /  0 mm
05:24 7.0 °F /  -13.9 °C 4.3 °F /  -15.4 °C 1007.7 in /  34120.7 hPa Calm     83 % 0.0 in /  0 mm
05:30 7.1 °F /  -13.8 °C 4.4 °F /  -15.3 °C 1007.7 in /  34120.7 hPa Calm     83 % 0.0 in /  0 mm
05:36 7.1 °F /  -13.8 °C 4.4 °F /  -15.3 °C 1007.3 in /  34107.2 hPa Calm     83 % 0.0 in /  0 mm
05:42 7.1 °F /  -13.8 °C 4.4 °F /  -15.3 °C 1007.3 in /  34107.2 hPa Calm     83 % 0.0 in /  0 mm
05:49 7.0 °F /  -13.9 °C 4.3 °F /  -15.4 °C 1007.3 in /  34107.2 hPa Calm     83 % 0.0 in /  0 mm
05:55 6.9 °F /  -13.9 °C 4.2 °F /  -15.4 °C 1007.3 in /  34107.2 hPa Calm     83 % 0.0 in /  0 mm
06:01 7.1 °F /  -13.8 °C 4.4 °F /  -15.3 °C 1007.3 in /  34107.2 hPa Calm     83 % 0.0 in /  0 mm
06:07 7.2 °F /  -13.8 °C 4.5 °F /  -15.3 °C 1007.3 in /  34107.2 hPa Calm     83 % 0.0 in /  0 mm
06:13 7.3 °F /  -13.7 °C 4.4 °F /  -15.3 °C 1007.3 in /  34107.2 hPa Calm     82 % 0.0 in /  0 mm
06:19 7.3 °F /  -13.7 °C 4.4 °F /  -15.3 °C 1007.3 in /  34107.2 hPa Calm     82 % 0.0 in /  0 mm
06:25 7.4 °F /  -13.7 °C 4.5 °F /  -15.3 °C 1007.3 in /  34107.2 hPa Calm     82 % 0.0 in /  0 mm
06:31 7.4 °F /  -13.7 °C 4.4 °F /  -15.3 °C 1007.3 in /  34107.2 hPa Calm     81 % 0.0 in /  0 mm
06:37 7.4 °F /  -13.7 °C 4.4 °F /  -15.3 °C 1007.3 in /  34107.2 hPa Calm     81 % 0.0 in /  0 mm
06:43 7.4 °F /  -13.7 °C 4.5 °F /  -15.3 °C 1007.3 in /  34107.2 hPa Calm     82 % 0.0 in /  0 mm
06:49 7.4 °F /  -13.7 °C 4.5 °F /  -15.3 °C 1007.3 in /  34107.2 hPa Calm     82 % 0.0 in /  0 mm
06:55 7.4 °F /  -13.7 °C 4.7 °F /  -15.2 °C 1007.3 in /  34107.2 hPa Calm     83 % 0.0 in /  0 mm
07:01 7.4 °F /  -13.7 °C 4.7 °F /  -15.2 °C 1007.3 in /  34107.2 hPa Calm     83 % 0.0 in /  0 mm
07:07 7.3 °F /  -13.7 °C 4.8 °F /  -15.1 °C 1007.3 in /  34107.2 hPa Calm     84 % 0.0 in /  0 mm
07:13 7.4 °F /  -13.7 °C 4.9 °F /  -15.1 °C 1007.3 in /  34107.2 hPa Calm     84 % 0.0 in /  0 mm
07:19 7.4 °F /  -13.7 °C 4.7 °F /  -15.2 °C 1007.3 in /  34107.2 hPa Calm     83 % 0.0 in /  0 mm
07:25 7.4 °F /  -13.7 °C 4.7 °F /  -15.2 °C 1007.3 in /  34107.2 hPa Calm     83 % 0.0 in /  0 mm
07:31 7.4 °F /  -13.7 °C 4.7 °F /  -15.2 °C 1007.0 in /  34097 hPa Calm   1.6 mph /  2.6 km/h 83 % 0.0 in /  0 mm
07:37 7.4 °F /  -13.7 °C 4.7 °F /  -15.2 °C 1007.3 in /  34107.2 hPa Calm     83 % 0.0 in /  0 mm
07:43 7.4 °F /  -13.7 °C 4.7 °F /  -15.2 °C 1007.3 in /  34107.2 hPa Calm   3.2 mph /  5.1 km/h 83 % 0.0 in /  0 mm
07:49 7.6 °F /  -13.6 °C 4.7 °F /  -15.2 °C 1007.3 in /  34107.2 hPa Calm   4.8 mph /  7.7 km/h 82 % 0.0 in /  0 mm
07:55 7.8 °F /  -13.4 °C 4.9 °F /  -15.1 °C 1007.3 in /  34107.2 hPa SW 1.4 mph /  2.3 km/h 3.2 mph /  5.1 km/h 82 % 0.0 in /  0 mm
08:01 8.0 °F /  -13.3 °C 5.1 °F /  -14.9 °C 1007.3 in /  34107.2 hPa South 3.2 mph /  5.1 km/h 3.2 mph /  5.1 km/h 82 % 0.0 in /  0 mm
08:07 8.1 °F /  -13.3 °C 5.2 °F /  -14.9 °C 1007.3 in /  34107.2 hPa SSE 1.4 mph /  2.3 km/h 1.6 mph /  2.6 km/h 82 % 0.0 in /  0 mm
08:14 8.1 °F /  -13.3 °C 5.2 °F /  -14.9 °C 1007.3 in /  34107.2 hPa Calm   3.2 mph /  5.1 km/h 82 % 0.0 in /  0 mm
08:20 8.2 °F /  -13.2 °C 5.3 °F /  -14.8 °C 1007.3 in /  34107.2 hPa SSW 3.2 mph /  5.1 km/h 3.2 mph /  5.1 km/h 82 % 0.0 in /  0 mm
08:26 8.2 °F /  -13.2 °C 5.3 °F /  -14.8 °C 1007.3 in /  34107.2 hPa SSE 1.4 mph /  2.3 km/h 1.6 mph /  2.6 km/h 82 % 0.0 in /  0 mm
08:32 8.3 °F /  -13.2 °C 5.2 °F /  -14.9 °C 1007.3 in /  34107.2 hPa SSW 3.2 mph /  5.1 km/h 3.2 mph /  5.1 km/h 81 % 0.0 in /  0 mm
08:38 8.3 °F /  -13.2 °C 5.2 °F /  -14.9 °C 1007.3 in /  34107.2 hPa SSW 3.2 mph /  5.1 km/h 3.2 mph /  5.1 km/h 81 % 0.0 in /  0 mm
08:44 8.4 °F /  -13.1 °C 5.2 °F /  -14.9 °C 1007.7 in /  34120.7 hPa SSW 1.4 mph /  2.3 km/h 3.2 mph /  5.1 km/h 80 % 0.0 in /  0 mm
08:50 8.5 °F /  -13.1 °C 5.1 °F /  -14.9 °C 1007.7 in /  34120.7 hPa SSW 3.2 mph /  5.1 km/h 4.8 mph /  7.7 km/h 79 % 0.0 in /  0 mm
08:56 8.7 °F /  -12.9 °C 5.1 °F /  -14.9 °C 1007.7 in /  34120.7 hPa SW 1.4 mph /  2.3 km/h 4.8 mph /  7.7 km/h 78 % 0.0 in /  0 mm
09:02 8.8 °F /  -12.9 °C 5.2 °F /  -14.9 °C 1007.7 in /  34120.7 hPa SW 1.4 mph /  2.3 km/h 3.2 mph /  5.1 km/h 78 % 0.0 in /  0 mm
09:08 8.9 °F /  -12.8 °C 5.5 °F /  -14.7 °C 1007.7 in /  34120.7 hPa Calm   3.2 mph /  5.1 km/h 79 % 0.0 in /  0 mm
09:14 9.0 °F /  -12.8 °C 5.6 °F /  -14.7 °C 1007.7 in /  34120.7 hPa SSW 1.4 mph /  2.3 km/h 1.6 mph /  2.6 km/h 79 % 0.0 in /  0 mm
09:20 9.2 °F /  -12.7 °C 5.9 °F /  -14.5 °C 1007.7 in /  34120.7 hPa Calm   1.6 mph /  2.6 km/h 80 % 0.0 in /  0 mm
09:26 9.3 °F /  -12.6 °C 5.7 °F /  -14.6 °C 1007.7 in /  34120.7 hPa SSW 1.4 mph /  2.3 km/h 4.8 mph /  7.7 km/h 78 % 0.0 in /  0 mm
09:32 9.6 °F /  -12.4 °C 5.8 °F /  -14.6 °C 1007.7 in /  34120.7 hPa SSW 4.7 mph /  7.6 km/h 6.4 mph /  10.3 km/h 77 % 0.0 in /  0 mm
09:38 9.8 °F /  -12.3 °C 5.8 °F /  -14.6 °C 1007.7 in /  34120.7 hPa SSE 3.2 mph /  5.1 km/h 8.0 mph /  12.9 km/h 76 % 0.0 in /  0 mm
09:44 10.1 °F /  -12.2 °C 6.1 °F /  -14.4 °C 1007.7 in /  34120.7 hPa SSE 4.7 mph /  7.6 km/h 8.0 mph /  12.9 km/h 76 % 0.0 in /  0 mm
09:50 10.3 °F /  -12.1 °C 6.1 °F /  -14.4 °C 1007.7 in /  34120.7 hPa SSE 1.4 mph /  2.3 km/h 6.4 mph /  10.3 km/h 75 % 0.0 in /  0 mm
09:56 10.5 °F /  -11.9 °C 6.1 °F /  -14.4 °C 1007.7 in /  34120.7 hPa SSE 4.7 mph /  7.6 km/h 9.7 mph /  15.6 km/h 74 % 0.0 in /  0 mm
10:02 10.6 °F /  -11.9 °C 6.2 °F /  -14.3 °C 1007.7 in /  34120.7 hPa South 3.2 mph /  5.1 km/h 11.3 mph /  18.2 km/h 74 % 0.0 in /  0 mm
10:08 10.8 °F /  -11.8 °C 6.5 °F /  -14.2 °C 1007.7 in /  34120.7 hPa SSE 1.4 mph /  2.3 km/h 6.4 mph /  10.3 km/h 75 % 0.0 in /  0 mm
10:14 11.1 °F /  -11.6 °C 6.4 °F /  -14.2 °C 1007.7 in /  34120.7 hPa SSE 1.4 mph /  2.3 km/h 8.0 mph /  12.9 km/h 73 % 0.0 in /  0 mm
10:20 11.3 °F /  -11.5 °C 6.8 °F /  -14 °C 1007.7 in /  34120.7 hPa South 3.2 mph /  5.1 km/h 6.4 mph /  10.3 km/h 74 % 0.0 in /  0 mm
10:26 11.5 °F /  -11.4 °C 6.4 °F /  -14.2 °C 1007.7 in /  34120.7 hPa SSW 7.9 mph /  12.7 km/h 9.7 mph /  15.6 km/h 71 % 0.0 in /  0 mm
10:32 11.7 °F /  -11.3 °C 6.8 °F /  -14 °C 1007.7 in /  34120.7 hPa SSW 6.4 mph /  10.3 km/h 12.9 mph /  20.8 km/h 72 % 0.0 in /  0 mm
10:38 11.8 °F /  -11.2 °C 6.7 °F /  -14.1 °C 1007.7 in /  34120.7 hPa SSE 6.4 mph /  10.3 km/h 9.7 mph /  15.6 km/h 71 % 0.0 in /  0 mm
10:44 11.9 °F /  -11.2 °C 6.6 °F /  -14.1 °C 1007.7 in /  34120.7 hPa SSE 14.5 mph /  23.3 km/h 14.5 mph /  23.3 km/h 70 % 0.0 in /  0 mm
10:50 12.0 °F /  -11.1 °C 6.5 °F /  -14.2 °C 1007.7 in /  34120.7 hPa SSE 9.7 mph /  15.6 km/h 12.9 mph /  20.8 km/h 69 % 0.0 in /  0 mm
10:56 12.1 °F /  -11.1 °C 6.6 °F /  -14.1 °C 1007.7 in /  34120.7 hPa SE 4.7 mph /  7.6 km/h 11.3 mph /  18.2 km/h 69 % 0.0 in /  0 mm
11:02 12.4 °F /  -10.9 °C 7.1 °F /  -13.8 °C 1007.7 in /  34120.7 hPa South 3.2 mph /  5.1 km/h 9.7 mph /  15.6 km/h 70 % 0.0 in /  0 mm
11:08 12.7 °F /  -10.7 °C 7.2 °F /  -13.8 °C 1007.7 in /  34120.7 hPa SSE 3.2 mph /  5.1 km/h 6.4 mph /  10.3 km/h 69 % 0.0 in /  0 mm
11:14 12.7 °F /  -10.7 °C 6.5 °F /  -14.2 °C 1007.7 in /  34120.7 hPa SE 4.7 mph /  7.6 km/h 12.9 mph /  20.8 km/h 66 % 0.0 in /  0 mm
11:20 12.5 °F /  -10.8 °C 6.5 °F /  -14.2 °C 1007.7 in /  34120.7 hPa SSW 3.2 mph /  5.1 km/h 14.5 mph /  23.3 km/h 67 % 0.0 in /  0 mm
11:26 12.6 °F /  -10.8 °C 7.1 °F /  -13.8 °C 1007.7 in /  34120.7 hPa SSE 4.7 mph /  7.6 km/h 9.7 mph /  15.6 km/h 69 % 0.0 in /  0 mm
11:32 12.7 °F /  -10.7 °C 7.4 °F /  -13.7 °C 1007.7 in /  34120.7 hPa SE 3.2 mph /  5.1 km/h 9.7 mph /  15.6 km/h 70 % 0.0 in /  0 mm
11:38 12.9 °F /  -10.6 °C 7.6 °F /  -13.6 °C 1007.7 in /  34120.7 hPa SSE 3.2 mph /  5.1 km/h 6.4 mph /  10.3 km/h 70 % 0.0 in /  0 mm
11:44 13.0 °F /  -10.6 °C 6.8 °F /  -14 °C 1007.7 in /  34120.7 hPa SSE 6.4 mph /  10.3 km/h 11.3 mph /  18.2 km/h 66 % 0.0 in /  0 mm
11:50 13.1 °F /  -10.5 °C 6.7 °F /  -14.1 °C 1007.3 in /  34107.2 hPa SSW 11.1 mph /  17.9 km/h 12.9 mph /  20.8 km/h 65 % 0.0 in /  0 mm
11:56 13.3 °F /  -10.4 °C 7.5 °F /  -13.6 °C 1007.3 in /  34107.2 hPa South 3.2 mph /  5.1 km/h 11.3 mph /  18.2 km/h 68 % 0.0 in /  0 mm
12:02 13.5 °F /  -10.3 °C 6.4 °F /  -14.2 °C 1007.3 in /  34107.2 hPa South 7.9 mph /  12.7 km/h 12.9 mph /  20.8 km/h 62 % 0.0 in /  0 mm
12:08 13.7 °F /  -10.2 °C 7.2 °F /  -13.8 °C 1007.3 in /  34107.2 hPa South 6.4 mph /  10.3 km/h 11.3 mph /  18.2 km/h 65 % 0.0 in /  0 mm
12:14 13.8 °F /  -10.1 °C 7.1 °F /  -13.8 °C 1007.0 in /  34097 hPa SE 3.2 mph /  5.1 km/h 12.9 mph /  20.8 km/h 64 % 0.0 in /  0 mm
12:20 13.8 °F /  -10.1 °C 7.1 °F /  -13.8 °C 1007.0 in /  34097 hPa SE 11.1 mph /  17.9 km/h 11.3 mph /  18.2 km/h 64 % 0.0 in /  0 mm
12:26 13.9 °F /  -10.1 °C 7.4 °F /  -13.7 °C 1007.0 in /  34097 hPa SSE 3.2 mph /  5.1 km/h 14.5 mph /  23.3 km/h 65 % 0.0 in /  0 mm
12:32 14.2 °F /  -9.9 °C 7.5 °F /  -13.6 °C 1007.0 in /  34097 hPa SE 7.9 mph /  12.7 km/h 17.7 mph /  28.5 km/h 64 % 0.0 in /  0 mm
12:38 14.2 °F /  -9.9 °C 7.3 °F /  -13.7 °C 1007.0 in /  34097 hPa South 4.7 mph /  7.6 km/h 12.9 mph /  20.8 km/h 63 % 0.0 in /  0 mm
12:44 14.1 °F /  -9.9 °C 7.4 °F /  -13.7 °C 1007.0 in /  34097 hPa South 7.9 mph /  12.7 km/h 12.9 mph /  20.8 km/h 64 % 0.0 in /  0 mm
12:50 14.1 °F /  -9.9 °C 7.6 °F /  -13.6 °C 1007.0 in /  34097 hPa SE 4.7 mph /  7.6 km/h 11.3 mph /  18.2 km/h 65 % 0.0 in /  0 mm
12:56 14.1 °F /  -9.9 °C 7.8 °F /  -13.4 °C 1007.0 in /  34097 hPa South 4.7 mph /  7.6 km/h 9.7 mph /  15.6 km/h 66 % 0.0 in /  0 mm
13:02 14.2 °F /  -9.9 °C 7.9 °F /  -13.4 °C 1006.7 in /  34086.9 hPa SSE 4.7 mph /  7.6 km/h 11.3 mph /  18.2 km/h 66 % 0.0 in /  0 mm
13:08 14.4 °F /  -9.8 °C 7.7 °F /  -13.5 °C 1006.7 in /  34086.9 hPa ESE 4.7 mph /  7.6 km/h 11.3 mph /  18.2 km/h 64 % 0.0 in /  0 mm
13:14 14.4 °F /  -9.8 °C 7.7 °F /  -13.5 °C 1006.7 in /  34086.9 hPa South 6.4 mph /  10.3 km/h 12.9 mph /  20.8 km/h 64 % 0.0 in /  0 mm
13:20 14.6 °F /  -9.7 °C 8.3 °F /  -13.2 °C 1006.3 in /  34073.3 hPa SSE 4.7 mph /  7.6 km/h 6.4 mph /  10.3 km/h 66 % 0.0 in /  0 mm
13:26 14.7 °F /  -9.6 °C 8.6 °F /  -13 °C 1006.3 in /  34073.3 hPa South 6.4 mph /  10.3 km/h 8.0 mph /  12.9 km/h 67 % 0.0 in /  0 mm
13:32 14.7 °F /  -9.6 °C 8.0 °F /  -13.3 °C 1006.3 in /  34073.3 hPa SE 6.4 mph /  10.3 km/h 8.0 mph /  12.9 km/h 64 % 0.0 in /  0 mm
13:38 14.8 °F /  -9.6 °C 8.3 °F /  -13.2 °C 1006.0 in /  34063.2 hPa SSE 4.7 mph /  7.6 km/h 12.9 mph /  20.8 km/h 65 % 0.0 in /  0 mm
13:44 14.9 °F /  -9.5 °C 8.1 °F /  -13.3 °C 1006.0 in /  34063.2 hPa South 6.4 mph /  10.3 km/h 11.3 mph /  18.2 km/h 64 % 0.0 in /  0 mm
13:50 15.0 °F /  -9.4 °C 8.0 °F /  -13.3 °C 1006.0 in /  34063.2 hPa SSE 4.7 mph /  7.6 km/h 12.9 mph /  20.8 km/h 63 % 0.0 in /  0 mm
13:56 15.0 °F /  -9.4 °C 8.0 °F /  -13.3 °C 1005.6 in /  34049.6 hPa SE 7.9 mph /  12.7 km/h 17.7 mph /  28.5 km/h 63 % 0.0 in /  0 mm
14:02 15.2 °F /  -9.3 °C 8.4 °F /  -13.1 °C 1005.6 in /  34049.6 hPa East 4.7 mph /  7.6 km/h 11.3 mph /  18.2 km/h 64 % 0.0 in /  0 mm
14:08 15.2 °F /  -9.3 °C 8.0 °F /  -13.3 °C 1005.6 in /  34049.6 hPa SE 4.7 mph /  7.6 km/h 12.9 mph /  20.8 km/h 62 % 0.0 in /  0 mm
14:14 15.2 °F /  -9.3 °C 8.2 °F /  -13.2 °C 1005.6 in /  34049.6 hPa ESE 9.7 mph /  15.6 km/h 12.9 mph /  20.8 km/h 63 % 0.0 in /  0 mm
14:20 15.2 °F /  -9.3 °C 8.0 °F /  -13.3 °C 1005.6 in /  34049.6 hPa SSE 7.9 mph /  12.7 km/h 12.9 mph /  20.8 km/h 62 % 0.0 in /  0 mm
14:26 15.2 °F /  -9.3 °C 8.7 °F /  -12.9 °C 1005.6 in /  34049.6 hPa SE 6.4 mph /  10.3 km/h 9.7 mph /  15.6 km/h 65 % 0.0 in /  0 mm
14:32 15.2 °F /  -9.3 °C 8.2 °F /  -13.2 °C 1005.6 in /  34049.6 hPa SSE 9.7 mph /  15.6 km/h 12.9 mph /  20.8 km/h 63 % 0.0 in /  0 mm
14:38 15.3 °F /  -9.3 °C 8.5 °F /  -13.1 °C 1005.6 in /  34049.6 hPa SE 3.2 mph /  5.1 km/h 14.5 mph /  23.3 km/h 64 % 0.0 in /  0 mm
14:44 15.4 °F /  -9.2 °C 8.6 °F /  -13 °C 1005.3 in /  34039.5 hPa SE 9.7 mph /  15.6 km/h 11.3 mph /  18.2 km/h 64 % 0.0 in /  0 mm
14:50 15.6 °F /  -9.1 °C 8.6 °F /  -13 °C 1005.3 in /  34039.5 hPa SSE 9.7 mph /  15.6 km/h 9.7 mph /  15.6 km/h 63 % 0.0 in /  0 mm
14:56 15.8 °F /  -9 °C 8.8 °F /  -12.9 °C 1005.3 in /  34039.5 hPa SE 4.7 mph /  7.6 km/h 9.7 mph /  15.6 km/h 63 % 0.0 in /  0 mm
15:02 16.1 °F /  -8.8 °C 9.1 °F /  -12.7 °C 1005.0 in /  34029.3 hPa SSE 6.4 mph /  10.3 km/h 11.3 mph /  18.2 km/h 63 % 0.0 in /  0 mm
15:08 16.2 °F /  -8.8 °C 8.7 °F /  -12.9 °C 1005.0 in /  34029.3 hPa SSE 6.4 mph /  10.3 km/h 14.5 mph /  23.3 km/h 61 % 0.0 in /  0 mm
15:14 16.3 °F /  -8.7 °C 9.0 °F /  -12.8 °C 1005.0 in /  34029.3 hPa SE 7.9 mph /  12.7 km/h 12.9 mph /  20.8 km/h 62 % 0.0 in /  0 mm
15:20 16.3 °F /  -8.7 °C 9.0 °F /  -12.8 °C 1005.0 in /  34029.3 hPa SSW 3.2 mph /  5.1 km/h 11.3 mph /  18.2 km/h 62 % 0.0 in /  0 mm
15:26 16.7 °F /  -8.5 °C 9.9 °F /  -12.3 °C 1005.0 in /  34029.3 hPa SE 4.7 mph /  7.6 km/h 12.9 mph /  20.8 km/h 64 % 0.0 in /  0 mm
15:32 16.7 °F /  -8.5 °C 9.6 °F /  -12.4 °C 1005.0 in /  34029.3 hPa SW 4.7 mph /  7.6 km/h 11.3 mph /  18.2 km/h 63 % 0.0 in /  0 mm
15:38 16.7 °F /  -8.5 °C 9.4 °F /  -12.6 °C 1005.0 in /  34029.3 hPa SSE 6.4 mph /  10.3 km/h 8.0 mph /  12.9 km/h 62 % 0.0 in /  0 mm
15:44 16.7 °F /  -8.5 °C 9.6 °F /  -12.4 °C 1004.6 in /  34015.8 hPa SSW 4.7 mph /  7.6 km/h 16.1 mph /  25.9 km/h 63 % 0.0 in /  0 mm
15:50 16.7 °F /  -8.5 °C 9.1 °F /  -12.7 °C 1004.6 in /  34015.8 hPa SSE 6.4 mph /  10.3 km/h 17.7 mph /  28.5 km/h 61 % 0.0 in /  0 mm
15:56 16.7 °F /  -8.5 °C 9.4 °F /  -12.6 °C 1004.6 in /  34015.8 hPa South 9.7 mph /  15.6 km/h 16.1 mph /  25.9 km/h 62 % 0.0 in /  0 mm
16:03 16.6 °F /  -8.6 °C 9.0 °F /  -12.8 °C 1005.0 in /  34029.3 hPa SSW 13.0 mph /  20.9 km/h 19.3 mph /  31.1 km/h 61 % 0.0 in /  0 mm
16:09 16.6 °F /  -8.6 °C 9.3 °F /  -12.6 °C 1005.0 in /  34029.3 hPa SW 7.9 mph /  12.7 km/h 11.3 mph /  18.2 km/h 62 % 0.0 in /  0 mm
16:15 16.5 °F /  -8.6 °C 9.4 °F /  -12.6 °C 1005.0 in /  34029.3 hPa SSW 7.9 mph /  12.7 km/h 12.9 mph /  20.8 km/h 63 % 0.0 in /  0 mm
16:21 16.4 °F /  -8.7 °C 9.8 °F /  -12.3 °C 1004.6 in /  34015.8 hPa South 7.9 mph /  12.7 km/h 12.9 mph /  20.8 km/h 65 % 0.0 in /  0 mm
16:27 16.4 °F /  -8.7 °C 9.3 °F /  -12.6 °C 1004.6 in /  34015.8 hPa SSW 11.1 mph /  17.9 km/h 16.1 mph /  25.9 km/h 63 % 0.0 in /  0 mm
16:33 16.3 °F /  -8.7 °C 9.9 °F /  -12.3 °C 1004.6 in /  34015.8 hPa SSW 7.9 mph /  12.7 km/h 8.0 mph /  12.9 km/h 66 % 0.0 in /  0 mm
16:39 16.1 °F /  -8.8 °C 9.7 °F /  -12.4 °C 1004.6 in /  34015.8 hPa SW 6.4 mph /  10.3 km/h 9.7 mph /  15.6 km/h 66 % 0.0 in /  0 mm
16:45 15.9 °F /  -8.9 °C 9.8 °F /  -12.3 °C 1004.6 in /  34015.8 hPa SSW 3.2 mph /  5.1 km/h 9.7 mph /  15.6 km/h 67 % 0.0 in /  0 mm
16:51 15.9 °F /  -8.9 °C 9.8 °F /  -12.3 °C 1004.6 in /  34015.8 hPa SSW 9.7 mph /  15.6 km/h 9.7 mph /  15.6 km/h 67 % 0.0 in /  0 mm
16:57 15.9 °F /  -8.9 °C 10.0 °F /  -12.2 °C 1004.6 in /  34015.8 hPa SW 7.9 mph /  12.7 km/h 11.3 mph /  18.2 km/h 68 % 0.0 in /  0 mm
17:03 15.8 °F /  -9 °C 10.1 °F /  -12.2 °C 1004.6 in /  34015.8 hPa SSW 7.9 mph /  12.7 km/h 12.9 mph /  20.8 km/h 69 % 0.0 in /  0 mm
17:09 15.7 °F /  -9.1 °C 10.0 °F /  -12.2 °C 1004.6 in /  34015.8 hPa SW 7.9 mph /  12.7 km/h 11.3 mph /  18.2 km/h 69 % 0.0 in /  0 mm
17:15 15.8 °F /  -9 °C 9.9 °F /  -12.3 °C 1004.6 in /  34015.8 hPa SW 11.1 mph /  17.9 km/h 14.5 mph /  23.3 km/h 68 % 0.0 in /  0 mm
17:21 15.8 °F /  -9 °C 9.7 °F /  -12.4 °C 1004.6 in /  34015.8 hPa SW 7.9 mph /  12.7 km/h 16.1 mph /  25.9 km/h 67 % 0.0 in /  0 mm
17:27 15.7 °F /  -9.1 °C 9.6 °F /  -12.4 °C 1004.6 in /  34015.8 hPa SW 7.9 mph /  12.7 km/h 12.9 mph /  20.8 km/h 67 % 0.0 in /  0 mm
17:33 15.6 °F /  -9.1 °C 9.5 °F /  -12.5 °C 1004.6 in /  34015.8 hPa SSW 7.9 mph /  12.7 km/h 12.9 mph /  20.8 km/h 67 % 0.0 in /  0 mm
17:39 15.4 °F /  -9.2 °C 9.7 °F /  -12.4 °C 1004.6 in /  34015.8 hPa SSW 6.4 mph /  10.3 km/h 8.0 mph /  12.9 km/h 69 % 0.0 in /  0 mm
17:45 15.2 °F /  -9.3 °C 9.8 °F /  -12.3 °C 1004.6 in /  34015.8 hPa SW 6.4 mph /  10.3 km/h 8.0 mph /  12.9 km/h 70 % 0.0 in /  0 mm
17:51 15.1 °F /  -9.4 °C 9.5 °F /  -12.5 °C 1004.6 in /  34015.8 hPa WSW 6.4 mph /  10.3 km/h 6.4 mph /  10.3 km/h 69 % 0.0 in /  0 mm
17:57 15.2 °F /  -9.3 °C 9.3 °F /  -12.6 °C 1004.6 in /  34015.8 hPa SSW 3.2 mph /  5.1 km/h 6.4 mph /  10.3 km/h 68 % 0.0 in /  0 mm
18:03 15.2 °F /  -9.3 °C 9.3 °F /  -12.6 °C 1004.6 in /  34015.8 hPa SW 3.2 mph /  5.1 km/h 6.4 mph /  10.3 km/h 68 % 0.0 in /  0 mm
18:09 15.2 °F /  -9.3 °C 9.3 °F /  -12.6 °C 1004.6 in /  34015.8 hPa SSW 3.2 mph /  5.1 km/h 6.4 mph /  10.3 km/h 68 % 0.0 in /  0 mm
18:15 15.2 °F /  -9.3 °C 9.3 °F /  -12.6 °C 1004.6 in /  34015.8 hPa WSW 4.7 mph /  7.6 km/h 4.8 mph /  7.7 km/h 68 % 0.0 in /  0 mm
18:21 15.2 °F /  -9.3 °C 9.1 °F /  -12.7 °C 1004.6 in /  34015.8 hPa SSW 1.4 mph /  2.3 km/h 3.2 mph /  5.1 km/h 67 % 0.0 in /  0 mm
18:27 15.3 °F /  -9.3 °C 9.2 °F /  -12.7 °C 1004.6 in /  34015.8 hPa SW 1.4 mph /  2.3 km/h 3.2 mph /  5.1 km/h 67 % 0.0 in /  0 mm
18:33 15.1 °F /  -9.4 °C 9.5 °F /  -12.5 °C 1004.6 in /  34015.8 hPa SSW 1.4 mph /  2.3 km/h 3.2 mph /  5.1 km/h 69 % 0.0 in /  0 mm
18:39 14.7 °F /  -9.6 °C 9.3 °F /  -12.6 °C 1004.6 in /  34015.8 hPa SSW 1.4 mph /  2.3 km/h 6.4 mph /  10.3 km/h 70 % 0.0 in /  0 mm
18:45 14.6 °F /  -9.7 °C 9.4 °F /  -12.6 °C 1004.6 in /  34015.8 hPa Calm   3.2 mph /  5.1 km/h 71 % 0.0 in /  0 mm
18:51 14.4 °F /  -9.8 °C 9.4 °F /  -12.6 °C 1004.6 in /  34015.8 hPa Calm     72 % 0.0 in /  0 mm
18:57 14.2 °F /  -9.9 °C 9.4 °F /  -12.6 °C 1004.6 in /  34015.8 hPa SW 1.4 mph /  2.3 km/h 1.6 mph /  2.6 km/h 73 % 0.0 in /  0 mm
19:03 14.2 °F /  -9.9 °C 9.4 °F /  -12.6 °C 1004.6 in /  34015.8 hPa Calm     73 % 0.0 in /  0 mm
19:09 14.3 °F /  -9.8 °C 9.3 °F /  -12.6 °C 1004.6 in /  34015.8 hPa Calm     72 % 0.0 in /  0 mm
19:15 14.2 °F /  -9.9 °C 9.2 °F /  -12.7 °C 1004.6 in /  34015.8 hPa Calm     72 % 0.0 in /  0 mm
19:21 14.2 °F /  -9.9 °C 9.4 °F /  -12.6 °C 1004.6 in /  34015.8 hPa Calm     73 % 0.0 in /  0 mm
19:27 14.2 °F /  -9.9 °C 9.4 °F /  -12.6 °C 1004.3 in /  34005.6 hPa Calm     73 % 0.0 in /  0 mm
19:33 14.1 °F /  -9.9 °C 9.3 °F /  -12.6 °C 1004.3 in /  34005.6 hPa Calm     73 % 0.0 in /  0 mm
19:39 14.1 °F /  -9.9 °C 9.3 °F /  -12.6 °C 1004.3 in /  34005.6 hPa Calm   1.6 mph /  2.6 km/h 73 % 0.0 in /  0 mm
19:45 14.1 °F /  -9.9 °C 9.3 °F /  -12.6 °C 1004.3 in /  34005.6 hPa Calm   1.6 mph /  2.6 km/h 73 % 0.0 in /  0 mm
19:51 14.1 °F /  -9.9 °C 9.1 °F /  -12.7 °C 1004.3 in /  34005.6 hPa SW 1.4 mph /  2.3 km/h 1.6 mph /  2.6 km/h 72 % 0.0 in /  0 mm
19:57 14.1 °F /  -9.9 °C 9.1 °F /  -12.7 °C 1004.3 in /  34005.6 hPa Calm     72 % 0.0 in /  0 mm
20:03 14.0 °F /  -10 °C 9.2 °F /  -12.7 °C 1004.3 in /  34005.6 hPa Calm     73 % 0.0 in /  0 mm
20:09 13.8 °F /  -10.1 °C 9.2 °F /  -12.7 °C 1004.3 in /  34005.6 hPa Calm   1.6 mph /  2.6 km/h 74 % 0.0 in /  0 mm
20:15 13.9 °F /  -10.1 °C 9.3 °F /  -12.6 °C 1004.3 in /  34005.6 hPa Calm     74 % 0.0 in /  0 mm
20:21 13.9 °F /  -10.1 °C 8.9 °F /  -12.8 °C 1004.3 in /  34005.6 hPa Calm   3.2 mph /  5.1 km/h 72 % 0.0 in /  0 mm
20:27 14.0 °F /  -10 °C 9.0 °F /  -12.8 °C 1004.3 in /  34005.6 hPa Calm     72 % 0.0 in /  0 mm
20:33 13.9 °F /  -10.1 °C 8.9 °F /  -12.8 °C 1004.3 in /  34005.6 hPa Calm     72 % 0.0 in /  0 mm
20:39 13.7 °F /  -10.2 °C 9.1 °F /  -12.7 °C 1004.3 in /  34005.6 hPa Calm     74 % 0.0 in /  0 mm
20:45 13.7 °F /  -10.2 °C 9.1 °F /  -12.7 °C 1004.3 in /  34005.6 hPa SSE 1.4 mph /  2.3 km/h 8.0 mph /  12.9 km/h 74 % 0.0 in /  0 mm
20:51 13.8 °F /  -10.1 °C 9.0 °F /  -12.8 °C 1004.3 in /  34005.6 hPa Calm   1.6 mph /  2.6 km/h 73 % 0.0 in /  0 mm
20:57 13.6 °F /  -10.2 °C 9.1 °F /  -12.7 °C 1004.3 in /  34005.6 hPa Calm   1.6 mph /  2.6 km/h 74 % 0.0 in /  0 mm
21:03 13.4 °F /  -10.3 °C 9.1 °F /  -12.7 °C 1004.3 in /  34005.6 hPa Calm   1.6 mph /  2.6 km/h 75 % 0.0 in /  0 mm
21:09 13.2 °F /  -10.4 °C 9.1 °F /  -12.7 °C 1004.3 in /  34005.6 hPa Calm     76 % 0.0 in /  0 mm
21:15 13.1 °F /  -10.5 °C 9.0 °F /  -12.8 °C 1004.3 in /  34005.6 hPa Calm     76 % 0.0 in /  0 mm
21:21 12.9 °F /  -10.6 °C 9.0 °F /  -12.8 °C 1004.3 in /  34005.6 hPa Calm   1.6 mph /  2.6 km/h 77 % 0.0 in /  0 mm
21:27 12.9 °F /  -10.6 °C 9.0 °F /  -12.8 °C 1004.3 in /  34005.6 hPa Calm   6.4 mph /  10.3 km/h 77 % 0.0 in /  0 mm
21:33 12.8 °F /  -10.7 °C 9.1 °F /  -12.7 °C 1004.3 in /  34005.6 hPa SW 4.7 mph /  7.6 km/h 4.8 mph /  7.7 km/h 78 % 0.0 in /  0 mm
21:39 12.9 °F /  -10.6 °C 9.0 °F /  -12.8 °C 1004.3 in /  34005.6 hPa SSE 1.4 mph /  2.3 km/h 8.0 mph /  12.9 km/h 77 % 0.0 in /  0 mm
21:45 13.2 °F /  -10.4 °C 8.9 °F /  -12.8 °C 1004.3 in /  34005.6 hPa South 4.7 mph /  7.6 km/h 12.9 mph /  20.8 km/h 75 % 0.0 in /  0 mm
21:51 13.3 °F /  -10.4 °C 8.8 °F /  -12.9 °C 1004.3 in /  34005.6 hPa SSW 3.2 mph /  5.1 km/h 9.7 mph /  15.6 km/h 74 % 0.0 in /  0 mm
21:57 13.3 °F /  -10.4 °C 8.6 °F /  -13 °C 1004.3 in /  34005.6 hPa SSE 3.2 mph /  5.1 km/h 11.3 mph /  18.2 km/h 73 % 0.0 in /  0 mm
22:03 13.4 °F /  -10.3 °C 8.5 °F /  -13.1 °C 1004.3 in /  34005.6 hPa South 7.9 mph /  12.7 km/h 11.3 mph /  18.2 km/h 72 % 0.0 in /  0 mm
22:09 13.5 °F /  -10.3 °C 8.6 °F /  -13 °C 1004.3 in /  34005.6 hPa SE 3.2 mph /  5.1 km/h 11.3 mph /  18.2 km/h 72 % 0.0 in /  0 mm
22:15 13.5 °F /  -10.3 °C 8.3 °F /  -13.2 °C 1004.3 in /  34005.6 hPa SE 4.7 mph /  7.6 km/h 12.9 mph /  20.8 km/h 71 % 0.0 in /  0 mm
22:21 13.4 °F /  -10.3 °C 8.2 °F /  -13.2 °C 1004.3 in /  34005.6 hPa SSE 6.4 mph /  10.3 km/h 8.0 mph /  12.9 km/h 71 % 0.0 in /  0 mm
22:27 13.3 °F /  -10.4 °C 8.4 °F /  -13.1 °C 1004.3 in /  34005.6 hPa South 1.4 mph /  2.3 km/h 8.0 mph /  12.9 km/h 72 % 0.0 in /  0 mm
22:33 13.2 °F /  -10.4 °C 8.3 °F /  -13.2 °C 1004.3 in /  34005.6 hPa South 4.7 mph /  7.6 km/h 8.0 mph /  12.9 km/h 72 % 0.0 in /  0 mm
22:39 13.1 °F /  -10.5 °C 8.2 °F /  -13.2 °C 1004.3 in /  34005.6 hPa SSE 3.2 mph /  5.1 km/h 11.3 mph /  18.2 km/h 72 % 0.0 in /  0 mm
22:45 13.0 °F /  -10.6 °C 8.3 °F /  -13.2 °C 1004.3 in /  34005.6 hPa SE 9.7 mph /  15.6 km/h 12.9 mph /  20.8 km/h 73 % 0.0 in /  0 mm
22:51 12.9 °F /  -10.6 °C 8.2 °F /  -13.2 °C 1004.3 in /  34005.6 hPa South 3.2 mph /  5.1 km/h 8.0 mph /  12.9 km/h 73 % 0.0 in /  0 mm
22:58 12.8 °F /  -10.7 °C 8.1 °F /  -13.3 °C 1004.3 in /  34005.6 hPa SSW 4.7 mph /  7.6 km/h 9.7 mph /  15.6 km/h 73 % 0.0 in /  0 mm
23:04 12.7 °F /  -10.7 °C 8.2 °F /  -13.2 °C 1004.3 in /  34005.6 hPa SE 7.9 mph /  12.7 km/h 8.0 mph /  12.9 km/h 74 % 0.0 in /  0 mm
23:10 12.7 °F /  -10.7 °C 8.2 °F /  -13.2 °C 1004.3 in /  34005.6 hPa SSW 1.4 mph /  2.3 km/h 6.4 mph /  10.3 km/h 74 % 0.0 in /  0 mm
23:16 12.7 °F /  -10.7 °C 8.2 °F /  -13.2 °C 1004.3 in /  34005.6 hPa South 3.2 mph /  5.1 km/h 8.0 mph /  12.9 km/h 74 % 0.0 in /  0 mm
23:22 12.6 °F /  -10.8 °C 8.3 °F /  -13.2 °C 1004.3 in /  34005.6 hPa South 4.7 mph /  7.6 km/h 6.4 mph /  10.3 km/h 75 % 0.0 in /  0 mm
23:28 12.5 °F /  -10.8 °C 8.2 °F /  -13.2 °C 1004.3 in /  34005.6 hPa SSE 3.2 mph /  5.1 km/h 4.8 mph /  7.7 km/h 75 % 0.0 in /  0 mm
23:34 12.4 °F /  -10.9 °C 8.1 °F /  -13.3 °C 1004.3 in /  34005.6 hPa SW 3.2 mph /  5.1 km/h 4.8 mph /  7.7 km/h 75 % 0.0 in /  0 mm
23:40 12.2 °F /  -11 °C 8.1 °F /  -13.3 °C 1004.3 in /  34005.6 hPa South 1.4 mph /  2.3 km/h 3.2 mph /  5.1 km/h 76 % 0.0 in /  0 mm
23:46 12.2 °F /  -11 °C 8.1 °F /  -13.3 °C 1004.3 in /  34005.6 hPa SSE 1.4 mph /  2.3 km/h 3.2 mph /  5.1 km/h 76 % 0.0 in /  0 mm
23:52 12.2 °F /  -11 °C 8.1 °F /  -13.3 °C 1004.3 in /  34005.6 hPa SSW 1.4 mph /  2.3 km/h 3.2 mph /  5.1 km/h 76 % 0.0 in /  0 mm
23:58 12.2 °F /  -11 °C 8.1 °F /  -13.3 °C 1003.9 in /  33992.1 hPa Calm   3.2 mph /  5.1 km/h 76 % 0.0 in /  0 mm
Meteo18
Compliments of Weather Underground - 4 mb

Script developed by  Jim McMurry - jmcmurry@mwt.net Adapted for the template by  Wim van der Kuil - Leuven-Template.eu

You find our weather info also at:

European Weather Network

Weather Underground

Equipment we use:

Weather-station
Davis Vue

Weather-program
Meteobridge

Weather-server
Raspberry PI 2 B+

Provider
1 and 1

Davis Vue

Meteobridge

Raspberry PI 2 B+

1 and 1